sensor_id;sensor_type;location;lat;lon;timestamp;P1;durP1;ratioP1;P2;durP2;ratioP2
23117;SDS011;11728;50.624;6.014;2022-11-15T00:05:16;13.13;;;7.40;;
23117;SDS011;11728;50.624;6.014;2022-11-15T00:11:00;10.27;;;4.63;;
23117;SDS011;11728;50.624;6.014;2022-11-15T00:16:40;17.35;;;7.10;;
23117;SDS011;11728;50.624;6.014;2022-11-15T00:22:20;7.43;;;4.78;;
23117;SDS011;11728;50.624;6.014;2022-11-15T00:27:59;20.33;;;8.55;;
23117;SDS011;11728;50.624;6.014;2022-11-15T00:33:39;7.60;;;4.30;;
23117;SDS011;11728;50.624;6.014;2022-11-15T00:39:18;7.53;;;4.93;;
23117;SDS011;11728;50.624;6.014;2022-11-15T00:44:57;6.68;;;4.00;;
23117;SDS011;11728;50.624;6.014;2022-11-15T00:50:37;6.75;;;4.15;;
23117;SDS011;11728;50.624;6.014;2022-11-15T00:56:16;8.85;;;4.03;;
23117;SDS011;11728;50.624;6.014;2022-11-15T01:01:55;7.70;;;4.25;;
23117;SDS011;11728;50.624;6.014;2022-11-15T01:07:35;7.70;;;3.75;;
23117;SDS011;11728;50.624;6.014;2022-11-15T01:13:15;6.75;;;3.80;;
23117;SDS011;11728;50.624;6.014;2022-11-15T01:18:54;7.70;;;3.85;;
23117;SDS011;11728;50.624;6.014;2022-11-15T01:24:34;8.40;;;3.80;;
23117;SDS011;11728;50.624;6.014;2022-11-15T01:30:13;7.18;;;4.32;;
23117;SDS011;11728;50.624;6.014;2022-11-15T01:35:53;8.18;;;3.33;;
23117;SDS011;11728;50.624;6.014;2022-11-15T01:41:33;7.20;;;4.87;;
23117;SDS011;11728;50.624;6.014;2022-11-15T01:47:17;6.83;;;4.93;;
23117;SDS011;11728;50.624;6.014;2022-11-15T01:58:43;13.25;;;6.70;;
23117;SDS011;11728;50.624;6.014;2022-11-15T02:04:25;10.10;;;5.95;;
23117;SDS011;11728;50.624;6.014;2022-11-15T02:10:09;7.15;;;5.90;;
23117;SDS011;11728;50.624;6.014;2022-11-15T02:39:40;8.05;;;4.72;;
23117;SDS011;11728;50.624;6.014;2022-11-15T02:45:27;5.95;;;4.13;;
23117;SDS011;11728;50.624;6.014;2022-11-15T02:51:09;6.25;;;3.88;;
23117;SDS011;11728;50.624;6.014;2022-11-15T02:56:49;6.60;;;2.97;;
23117;SDS011;11728;50.624;6.014;2022-11-15T03:14:43;2.70;;;1.60;;
23117;SDS011;11728;50.624;6.014;2022-11-15T03:20:35;2.30;;;1.40;;
23117;SDS011;11728;50.624;6.014;2022-11-15T03:26:16;2.40;;;1.45;;
23117;SDS011;11728;50.624;6.014;2022-11-15T03:32:06;2.08;;;1.23;;
23117;SDS011;11728;50.624;6.014;2022-11-15T03:37:53;1.83;;;1.20;;
23117;SDS011;11728;50.624;6.014;2022-11-15T03:49:31;3.13;;;1.27;;
23117;SDS011;11728;50.624;6.014;2022-11-15T03:55:14;1.85;;;1.17;;
23117;SDS011;11728;50.624;6.014;2022-11-15T04:00:56;1.23;;;0.90;;
23117;SDS011;11728;50.624;6.014;2022-11-15T04:06:35;1.90;;;1.00;;
23117;SDS011;11728;50.624;6.014;2022-11-15T04:12:15;3.30;;;0.93;;
23117;SDS011;11728;50.624;6.014;2022-11-15T04:18:09;2.40;;;0.70;;
23117;SDS011;11728;50.624;6.014;2022-11-15T04:23:48;1.67;;;0.77;;
23117;SDS011;11728;50.624;6.014;2022-11-15T04:29:46;1.88;;;0.77;;
23117;SDS011;11728;50.624;6.014;2022-11-15T04:35:26;1.17;;;0.80;;
23117;SDS011;11728;50.624;6.014;2022-11-15T04:41:05;1.30;;;0.87;;
23117;SDS011;11728;50.624;6.014;2022-11-15T04:46:45;1.27;;;0.80;;
23117;SDS011;11728;50.624;6.014;2022-11-15T04:52:24;1.27;;;0.70;;
23117;SDS011;11728;50.624;6.014;2022-11-15T04:58:04;1.77;;;0.70;;
23117;SDS011;11728;50.624;6.014;2022-11-15T05:03:43;2.20;;;0.70;;
23117;SDS011;11728;50.624;6.014;2022-11-15T05:09:42;2.38;;;0.60;;
23117;SDS011;11728;50.624;6.014;2022-11-15T05:15:21;1.17;;;0.68;;
23117;SDS011;11728;50.624;6.014;2022-11-15T05:21:04;2.22;;;0.70;;
23117;SDS011;11728;50.624;6.014;2022-11-15T05:26:45;1.92;;;0.90;;
23117;SDS011;11728;50.624;6.014;2022-11-15T05:32:24;1.05;;;0.68;;
23117;SDS011;11728;50.624;6.014;2022-11-15T05:38:03;1.60;;;0.90;;
23117;SDS011;11728;50.624;6.014;2022-11-15T05:43:43;2.97;;;1.10;;
23117;SDS011;11728;50.624;6.014;2022-11-15T05:49:24;1.52;;;0.90;;
23117;SDS011;11728;50.624;6.014;2022-11-15T05:55:08;2.38;;;1.20;;
23117;SDS011;11728;50.624;6.014;2022-11-15T06:00:48;2.67;;;1.27;;
23117;SDS011;11728;50.624;6.014;2022-11-15T06:06:28;2.20;;;1.10;;
23117;SDS011;11728;50.624;6.014;2022-11-15T06:12:07;3.10;;;1.27;;
23117;SDS011;11728;50.624;6.014;2022-11-15T06:17:47;4.22;;;1.15;;
23117;SDS011;11728;50.624;6.014;2022-11-15T06:23:26;4.90;;;1.30;;
23117;SDS011;11728;50.624;6.014;2022-11-15T06:29:06;2.97;;;1.15;;
23117;SDS011;11728;50.624;6.014;2022-11-15T06:34:45;3.72;;;1.40;;
23117;SDS011;11728;50.624;6.014;2022-11-15T06:40:25;4.32;;;1.08;;
23117;SDS011;11728;50.624;6.014;2022-11-15T06:46:05;1.75;;;1.20;;
23117;SDS011;11728;50.624;6.014;2022-11-15T06:51:45;3.33;;;1.13;;
23117;SDS011;11728;50.624;6.014;2022-11-15T06:57:25;4.05;;;1.20;;
23117;SDS011;11728;50.624;6.014;2022-11-15T07:03:04;4.50;;;1.20;;
23117;SDS011;11728;50.624;6.014;2022-11-15T07:08:43;5.43;;;1.30;;
23117;SDS011;11728;50.624;6.014;2022-11-15T07:14:22;2.10;;;0.85;;
23117;SDS011;11728;50.624;6.014;2022-11-15T07:20:02;3.23;;;0.80;;
23117;SDS011;11728;50.624;6.014;2022-11-15T07:25:42;5.15;;;1.20;;
23117;SDS011;11728;50.624;6.014;2022-11-15T07:31:22;3.20;;;1.05;;
23117;SDS011;11728;50.624;6.014;2022-11-15T07:37:01;3.35;;;1.00;;
23117;SDS011;11728;50.624;6.014;2022-11-15T07:42:40;2.50;;;0.73;;
23117;SDS011;11728;50.624;6.014;2022-11-15T07:48:32;2.03;;;0.80;;
23117;SDS011;11728;50.624;6.014;2022-11-15T07:54:11;5.40;;;1.00;;
23117;SDS011;11728;50.624;6.014;2022-11-15T07:59:51;3.10;;;1.00;;
23117;SDS011;11728;50.624;6.014;2022-11-15T08:05:30;5.38;;;1.02;;
23117;SDS011;11728;50.624;6.014;2022-11-15T08:11:10;4.83;;;1.20;;
23117;SDS011;11728;50.624;6.014;2022-11-15T08:16:49;3.38;;;1.08;;
23117;SDS011;11728;50.624;6.014;2022-11-15T08:22:29;4.32;;;1.00;;
23117;SDS011;11728;50.624;6.014;2022-11-15T08:28:09;4.00;;;1.02;;
23117;SDS011;11728;50.624;6.014;2022-11-15T08:39:28;1.55;;;0.60;;
23117;SDS011;11728;50.624;6.014;2022-11-15T08:45:08;2.33;;;0.82;;
23117;SDS011;11728;50.624;6.014;2022-11-15T08:50:48;4.72;;;0.88;;
23117;SDS011;11728;50.624;6.014;2022-11-15T08:56:27;8.20;;;0.90;;
23117;SDS011;11728;50.624;6.014;2022-11-15T09:02:10;3.13;;;0.80;;
23117;SDS011;11728;50.624;6.014;2022-11-15T09:07:54;2.95;;;0.70;;
23117;SDS011;11728;50.624;6.014;2022-11-15T09:13:34;3.22;;;0.80;;
23117;SDS011;11728;50.624;6.014;2022-11-15T09:19:15;3.35;;;0.98;;
23117;SDS011;11728;50.624;6.014;2022-11-15T09:24:55;2.25;;;0.75;;
23117;SDS011;11728;50.624;6.014;2022-11-15T09:30:34;2.65;;;0.77;;
23117;SDS011;11728;50.624;6.014;2022-11-15T09:36:14;2.37;;;0.57;;
23117;SDS011;11728;50.624;6.014;2022-11-15T09:47:55;3.65;;;0.80;;
23117;SDS011;11728;50.624;6.014;2022-11-15T09:53:46;3.38;;;0.77;;
23117;SDS011;11728;50.624;6.014;2022-11-15T10:05:12;3.58;;;0.70;;
23117;SDS011;11728;50.624;6.014;2022-11-15T10:10:41;1.50;;;0.50;;
23117;SDS011;11728;50.624;6.014;2022-11-15T10:16:39;3.83;;;0.95;;
23117;SDS011;11728;50.624;6.014;2022-11-15T10:27:50;1.92;;;0.52;;
23117;SDS011;11728;50.624;6.014;2022-11-15T10:33:25;2.85;;;0.77;;
23117;SDS011;11728;50.624;6.014;2022-11-15T10:38:53;4.47;;;0.88;;
23117;SDS011;11728;50.624;6.014;2022-11-15T10:44:22;4.50;;;0.80;;
23117;SDS011;11728;50.624;6.014;2022-11-15T10:49:52;2.38;;;0.50;;
23117;SDS011;11728;50.624;6.014;2022-11-15T11:00:36;2.22;;;0.60;;
23117;SDS011;11728;50.624;6.014;2022-11-15T11:06:07;3.88;;;0.93;;
23117;SDS011;11728;50.624;6.014;2022-11-15T11:11:48;2.17;;;0.60;;
23117;SDS011;11728;50.624;6.014;2022-11-15T11:28:33;3.72;;;0.93;;
23117;SDS011;11728;50.624;6.014;2022-11-15T11:45:36;3.15;;;0.80;;
23117;SDS011;11728;50.624;6.014;2022-11-15T11:51:09;4.70;;;0.95;;
23117;SDS011;11728;50.624;6.014;2022-11-15T11:56:34;3.35;;;1.08;;
23117;SDS011;11728;50.624;6.014;2022-11-15T12:02:02;4.57;;;1.00;;
23117;SDS011;11728;50.624;6.014;2022-11-15T12:07:33;3.55;;;1.00;;
23117;SDS011;11728;50.624;6.014;2022-11-15T12:13:05;3.40;;;0.88;;
23117;SDS011;11728;50.624;6.014;2022-11-15T12:18:31;2.42;;;1.08;;
23117;SDS011;11728;50.624;6.014;2022-11-15T12:23:54;4.45;;;0.98;;
23117;SDS011;11728;50.624;6.014;2022-11-15T12:29:40;4.65;;;0.90;;
23117;SDS011;11728;50.624;6.014;2022-11-15T12:35:29;4.07;;;0.90;;
23117;SDS011;11728;50.624;6.014;2022-11-15T12:41:12;3.47;;;1.13;;
23117;SDS011;11728;50.624;6.014;2022-11-15T12:57:29;3.35;;;1.33;;
23117;SDS011;11728;50.624;6.014;2022-11-15T13:02:55;2.30;;;0.90;;
23117;SDS011;11728;50.624;6.014;2022-11-15T13:08:44;3.63;;;1.05;;
23117;SDS011;11728;50.624;6.014;2022-11-15T13:14:42;1.92;;;0.98;;
23117;SDS011;11728;50.624;6.014;2022-11-15T13:31:40;5.28;;;1.73;;
23117;SDS011;11728;50.624;6.014;2022-11-15T13:37:03;2.30;;;1.17;;
23117;SDS011;11728;50.624;6.014;2022-11-15T13:42:24;3.28;;;1.35;;
23117;SDS011;11728;50.624;6.014;2022-11-15T13:47:53;4.80;;;1.42;;
23117;SDS011;11728;50.624;6.014;2022-11-15T13:53:16;3.10;;;1.20;;
23117;SDS011;11728;50.624;6.014;2022-11-15T13:58:37;2.72;;;1.00;;
23117;SDS011;11728;50.624;6.014;2022-11-15T14:04:00;5.20;;;1.00;;
23117;SDS011;11728;50.624;6.014;2022-11-15T14:09:29;2.53;;;1.25;;
23117;SDS011;11728;50.624;6.014;2022-11-15T14:14:54;2.83;;;1.20;;
23117;SDS011;11728;50.624;6.014;2022-11-15T14:20:20;3.20;;;1.13;;
23117;SDS011;11728;50.624;6.014;2022-11-15T14:25:56;3.92;;;1.23;;
23117;SDS011;11728;50.624;6.014;2022-11-15T14:31:18;2.35;;;1.15;;
23117;SDS011;11728;50.624;6.014;2022-11-15T14:36:41;2.10;;;1.17;;
23117;SDS011;11728;50.624;6.014;2022-11-15T14:42:01;2.63;;;1.13;;
23117;SDS011;11728;50.624;6.014;2022-11-15T14:47:22;3.17;;;1.25;;
23117;SDS011;11728;50.624;6.014;2022-11-15T14:52:43;2.05;;;1.00;;
23117;SDS011;11728;50.624;6.014;2022-11-15T14:58:05;2.50;;;1.10;;
23117;SDS011;11728;50.624;6.014;2022-11-15T15:03:30;3.90;;;1.40;;
23117;SDS011;11728;50.624;6.014;2022-11-15T15:08:51;2.58;;;1.15;;
23117;SDS011;11728;50.624;6.014;2022-11-15T15:14:13;2.75;;;1.60;;
23117;SDS011;11728;50.624;6.014;2022-11-15T15:19:34;4.40;;;1.75;;
23117;SDS011;11728;50.624;6.014;2022-11-15T15:24:55;3.83;;;1.52;;
23117;SDS011;11728;50.624;6.014;2022-11-15T15:30:16;3.33;;;1.70;;
23117;SDS011;11728;50.624;6.014;2022-11-15T15:35:37;3.35;;;1.65;;
23117;SDS011;11728;50.624;6.014;2022-11-15T15:40:58;4.22;;;1.30;;
23117;SDS011;11728;50.624;6.014;2022-11-15T15:46:22;2.45;;;1.48;;
23117;SDS011;11728;50.624;6.014;2022-11-15T15:51:43;1.83;;;1.10;;
23117;SDS011;11728;50.624;6.014;2022-11-15T15:57:05;3.40;;;1.40;;
23117;SDS011;11728;50.624;6.014;2022-11-15T16:02:26;2.35;;;1.48;;
23117;SDS011;11728;50.624;6.014;2022-11-15T16:07:47;2.05;;;1.23;;
23117;SDS011;11728;50.624;6.014;2022-11-15T16:13:08;4.00;;;1.30;;
23117;SDS011;11728;50.624;6.014;2022-11-15T16:18:29;3.08;;;1.30;;
23117;SDS011;11728;50.624;6.014;2022-11-15T16:23:50;3.20;;;1.60;;
23117;SDS011;11728;50.624;6.014;2022-11-15T16:29:11;3.90;;;1.70;;
23117;SDS011;11728;50.624;6.014;2022-11-15T16:34:32;3.17;;;1.88;;
23117;SDS011;11728;50.624;6.014;2022-11-15T16:39:53;3.47;;;1.23;;
23117;SDS011;11728;50.624;6.014;2022-11-15T16:45:13;2.65;;;1.63;;
23117;SDS011;11728;50.624;6.014;2022-11-15T16:50:34;2.30;;;1.55;;
23117;SDS011;11728;50.624;6.014;2022-11-15T16:56:02;3.35;;;1.70;;
23117;SDS011;11728;50.624;6.014;2022-11-15T17:01:25;5.47;;;1.83;;
23117;SDS011;11728;50.624;6.014;2022-11-15T17:06:48;4.13;;;1.75;;
23117;SDS011;11728;50.624;6.014;2022-11-15T17:12:09;2.78;;;1.80;;
23117;SDS011;11728;50.624;6.014;2022-11-15T17:17:31;4.95;;;1.80;;
23117;SDS011;11728;50.624;6.014;2022-11-15T17:22:52;3.67;;;2.10;;
23117;SDS011;11728;50.624;6.014;2022-11-15T17:28:13;3.40;;;1.90;;
23117;SDS011;11728;50.624;6.014;2022-11-15T17:33:34;5.05;;;1.67;;
23117;SDS011;11728;50.624;6.014;2022-11-15T17:38:55;4.18;;;1.70;;
23117;SDS011;11728;50.624;6.014;2022-11-15T17:44:16;2.80;;;1.75;;
23117;SDS011;11728;50.624;6.014;2022-11-15T17:49:37;3.45;;;1.80;;
23117;SDS011;11728;50.624;6.014;2022-11-15T17:55:00;2.35;;;1.70;;
23117;SDS011;11728;50.624;6.014;2022-11-15T18:00:21;5.35;;;1.90;;
23117;SDS011;11728;50.624;6.014;2022-11-15T18:05:41;2.35;;;1.60;;
23117;SDS011;11728;50.624;6.014;2022-11-15T18:11:04;3.70;;;1.83;;
23117;SDS011;11728;50.624;6.014;2022-11-15T18:16:30;3.05;;;1.90;;
23117;SDS011;11728;50.624;6.014;2022-11-15T18:21:53;3.20;;;1.92;;
23117;SDS011;11728;50.624;6.014;2022-11-15T18:27:16;3.55;;;1.80;;
23117;SDS011;11728;50.624;6.014;2022-11-15T18:32:37;3.53;;;2.05;;
23117;SDS011;11728;50.624;6.014;2022-11-15T18:37:58;7.18;;;2.10;;
23117;SDS011;11728;50.624;6.014;2022-11-15T18:43:19;3.33;;;1.75;;
23117;SDS011;11728;50.624;6.014;2022-11-15T18:48:40;2.72;;;1.80;;
23117;SDS011;11728;50.624;6.014;2022-11-15T18:54:02;3.65;;;1.92;;
23117;SDS011;11728;50.624;6.014;2022-11-15T18:59:23;2.85;;;1.80;;
23117;SDS011;11728;50.624;6.014;2022-11-15T19:04:47;3.45;;;1.80;;
23117;SDS011;11728;50.624;6.014;2022-11-15T19:10:07;3.42;;;1.85;;
23117;SDS011;11728;50.624;6.014;2022-11-15T19:15:30;3.40;;;1.25;;
23117;SDS011;11728;50.624;6.014;2022-11-15T19:20:51;3.67;;;1.70;;
23117;SDS011;11728;50.624;6.014;2022-11-15T19:26:13;2.28;;;1.50;;
23117;SDS011;11728;50.624;6.014;2022-11-15T19:31:35;3.08;;;1.55;;
23117;SDS011;11728;50.624;6.014;2022-11-15T19:36:57;2.22;;;1.45;;
23117;SDS011;11728;50.624;6.014;2022-11-15T19:42:17;2.97;;;1.58;;
23117;SDS011;11728;50.624;6.014;2022-11-15T19:47:38;2.45;;;1.55;;
23117;SDS011;11728;50.624;6.014;2022-11-15T19:52:59;2.65;;;1.55;;
23117;SDS011;11728;50.624;6.014;2022-11-15T19:58:20;2.65;;;1.80;;
23117;SDS011;11728;50.624;6.014;2022-11-15T20:03:41;2.67;;;1.55;;
23117;SDS011;11728;50.624;6.014;2022-11-15T20:09:02;3.15;;;1.48;;
23117;SDS011;11728;50.624;6.014;2022-11-15T20:14:23;2.10;;;1.30;;
23117;SDS011;11728;50.624;6.014;2022-11-15T20:19:44;1.65;;;1.10;;
23117;SDS011;11728;50.624;6.014;2022-11-15T20:25:05;1.80;;;0.90;;
23117;SDS011;11728;50.624;6.014;2022-11-15T20:30:26;2.97;;;1.10;;
23117;SDS011;11728;50.624;6.014;2022-11-15T20:35:47;3.10;;;1.30;;
23117;SDS011;11728;50.624;6.014;2022-11-15T20:41:09;1.70;;;1.10;;
23117;SDS011;11728;50.624;6.014;2022-11-15T20:46:33;2.10;;;1.10;;
23117;SDS011;11728;50.624;6.014;2022-11-15T20:51:54;2.50;;;1.10;;
23117;SDS011;11728;50.624;6.014;2022-11-15T20:57:15;1.60;;;1.05;;
23117;SDS011;11728;50.624;6.014;2022-11-15T21:02:36;2.38;;;1.10;;
23117;SDS011;11728;50.624;6.014;2022-11-15T21:07:58;2.95;;;1.23;;
23117;SDS011;11728;50.624;6.014;2022-11-15T21:13:18;2.80;;;1.00;;
23117;SDS011;11728;50.624;6.014;2022-11-15T21:18:39;2.65;;;1.45;;
23117;SDS011;11728;50.624;6.014;2022-11-15T21:24:04;3.05;;;1.23;;
23117;SDS011;11728;50.624;6.014;2022-11-15T21:29:26;2.33;;;1.33;;
23117;SDS011;11728;50.624;6.014;2022-11-15T21:34:47;1.77;;;1.10;;
23117;SDS011;11728;50.624;6.014;2022-11-15T21:40:08;3.03;;;1.00;;
23117;SDS011;11728;50.624;6.014;2022-11-15T21:45:30;1.85;;;1.00;;
23117;SDS011;11728;50.624;6.014;2022-11-15T21:50:57;1.83;;;1.13;;
23117;SDS011;11728;50.624;6.014;2022-11-15T21:56:20;2.33;;;1.30;;
23117;SDS011;11728;50.624;6.014;2022-11-15T22:01:41;2.10;;;1.15;;
23117;SDS011;11728;50.624;6.014;2022-11-15T22:07:20;3.67;;;1.60;;
23117;SDS011;11728;50.624;6.014;2022-11-15T22:12:41;2.72;;;1.30;;
23117;SDS011;11728;50.624;6.014;2022-11-15T22:18:02;2.33;;;1.50;;
23117;SDS011;11728;50.624;6.014;2022-11-15T22:23:23;3.58;;;1.70;;
23117;SDS011;11728;50.624;6.014;2022-11-15T22:28:45;3.17;;;1.73;;
23117;SDS011;11728;50.624;6.014;2022-11-15T22:34:06;2.53;;;1.50;;
23117;SDS011;11728;50.624;6.014;2022-11-15T22:39:27;2.25;;;1.70;;
23117;SDS011;11728;50.624;6.014;2022-11-15T22:44:48;3.00;;;2.00;;
23117;SDS011;11728;50.624;6.014;2022-11-15T22:50:08;4.43;;;1.65;;
23117;SDS011;11728;50.624;6.014;2022-11-15T22:55:29;3.97;;;1.95;;
23117;SDS011;11728;50.624;6.014;2022-11-15T23:00:51;2.60;;;1.88;;
23117;SDS011;11728;50.624;6.014;2022-11-15T23:06:14;2.40;;;1.80;;
23117;SDS011;11728;50.624;6.014;2022-11-15T23:11:35;2.85;;;1.80;;
23117;SDS011;11728;50.624;6.014;2022-11-15T23:17:15;3.15;;;1.92;;
23117;SDS011;11728;50.624;6.014;2022-11-15T23:22:36;3.00;;;1.35;;
23117;SDS011;11728;50.624;6.014;2022-11-15T23:28:09;2.78;;;1.90;;
23117;SDS011;11728;50.624;6.014;2022-11-15T23:33:32;2.45;;;1.77;;
23117;SDS011;11728;50.624;6.014;2022-11-15T23:39:12;1.90;;;1.13;;
23117;SDS011;11728;50.624;6.014;2022-11-15T23:44:33;2.42;;;1.52;;
23117;SDS011;11728;50.624;6.014;2022-11-15T23:49:53;2.05;;;1.33;;
23117;SDS011;11728;50.624;6.014;2022-11-15T23:55:15;2.50;;;1.55;;
